Time;durP1;ratioP1;P1;durP2;ratioP2;P2;SDS_P1;SDS_P2;PMS_P1;PMS_P2;Temp;Humidity;BMP_temperature;BMP_pressure;BME280_temperature;BME280_humidity;BME280_pressure;Samples;Min_cycle;Max_cycle;Signal;HPM_P1;HPM_P2
2023/04/09 00:01:24;;;;;;;35.60;22.67;;;;;;;;;;5136130;27;20414;-73
2023/04/09 00:04:10;;;;;;;36.65;22.75;;;;;;;;;;5136713;27;20038;-73
2023/04/09 00:06:55;;;;;;;34.88;22.00;;;;;;;;;;5136703;27;20042;-73
2023/04/09 00:09:41;;;;;;;38.47;23.77;;;;;;;;;;5136347;27;20320;-72
2023/04/09 00:12:26;;;;;;;37.67;25.13;;;;;;;;;;5122319;27;20030;-73
2023/04/09 00:15:12;;;;;;;39.17;26.17;;;;;;;;;;5136372;27;20023;-73
2023/04/09 00:17:58;;;;;;;40.90;25.98;;;;;;;;;;5135710;27;20050;-72
2023/04/09 00:20:44;;;;;;;41.97;26.70;;;;;;;;;;5121049;27;20461;-72
2023/04/09 00:23:29;;;;;;;43.60;26.42;;;;;;;;;;5136280;27;20042;-72
2023/04/09 00:26:15;;;;;;;41.15;26.67;;;;;;;;;;5136278;27;20027;-72
2023/04/09 00:29:00;;;;;;;42.70;26.70;;;;;;;;;;5135731;27;20015;-72
2023/04/09 00:31:46;;;;;;;39.90;25.80;;;;;;;;;;5136033;27;20355;-72
2023/04/09 00:34:32;;;;;;;42.38;26.20;;;;;;;;;;5135592;27;20023;-73
2023/04/09 00:37:17;;;;;;;45.00;25.48;;;;;;;;;;5135851;27;20026;-73
2023/04/09 00:40:03;;;;;;;42.40;26.95;;;;;;;;;;5135905;27;20019;-73
2023/04/09 00:42:49;;;;;;;46.63;27.48;;;;;;;;;;5136340;27;20049;-73
2023/04/09 00:45:35;;;;;;;44.28;27.52;;;;;;;;;;5135527;27;20035;-72
2023/04/09 00:48:21;;;;;;;43.58;27.95;;;;;;;;;;5120798;27;20027;-73
2023/04/09 00:51:06;;;;;;;41.90;27.45;;;;;;;;;;5137412;27;20022;-73
2023/04/09 00:53:53;;;;;;;41.13;26.80;;;;;;;;;;5135220;27;20038;-73
2023/04/09 00:56:39;;;;;;;42.58;27.90;;;;;;;;;;5135380;27;20023;-72
2023/04/09 00:59:25;;;;;;;45.47;28.10;;;;;;;;;;5134822;27;20023;-72
2023/04/09 01:02:11;;;;;;;44.45;28.52;;;;;;;;;;5135539;27;20019;-73
2023/04/09 01:04:57;;;;;;;40.95;25.77;;;;;;;;;;5136201;27;20051;-73
2023/04/09 01:07:49;;;;;;;43.00;27.13;;;;;;;;;;5134729;27;20389;-72
2023/04/09 01:10:45;;;;;;;43.00;27.40;;;;;;;;;;5136159;27;20461;-74
2023/04/09 01:13:54;;;;;;;40.97;26.48;;;;;;;;;;5120855;27;20019;-73
2023/04/09 01:16:43;;;;;;;46.40;28.80;;;;;;;;;;5134848;27;20087;-74
2023/04/09 01:19:40;;;;;;;44.42;27.85;;;;;;;;;;5135572;27;20443;-72
2023/04/09 01:22:32;;;;;;;47.35;29.77;;;;;;;;;;5135484;27;20023;-72
2023/04/09 01:25:37;;;;;;;42.75;27.63;;;;;;;;;;5134721;27;20059;-72
2023/04/09 01:28:26;;;;;;;49.65;28.55;;;;;;;;;;5135268;27;20080;-72
2023/04/09 01:31:12;;;;;;;55.33;27.70;;;;;;;;;;5135016;27;20443;-72
2023/04/09 01:33:59;;;;;;;49.03;28.40;;;;;;;;;;5134950;27;20030;-73
2023/04/09 01:36:47;;;;;;;46.53;26.83;;;;;;;;;;5135446;27;20034;-72
2023/04/09 01:39:35;;;;;;;42.35;26.90;;;;;;;;;;5135506;27;20031;-73
2023/04/09 01:42:21;;;;;;;44.88;26.80;;;;;;;;;;5135283;27;20023;-73
2023/04/09 01:45:07;;;;;;;42.58;26.27;;;;;;;;;;5133978;27;20027;-72
2023/04/09 01:47:53;;;;;;;39.88;26.40;;;;;;;;;;5135298;27;20084;-73
2023/04/09 01:50:39;;;;;;;40.45;25.83;;;;;;;;;;5134596;27;20056;-72
2023/04/09 01:53:27;;;;;;;38.90;24.42;;;;;;;;;;5134682;27;20038;-73
2023/04/09 01:56:12;;;;;;;36.35;23.63;;;;;;;;;;5134573;27;20019;-73
2023/04/09 01:58:58;;;;;;;35.50;23.23;;;;;;;;;;5120769;27;20107;-73
2023/04/09 02:01:48;;;;;;;39.60;24.48;;;;;;;;;;5134249;27;20015;-73
2023/04/09 02:04:44;;;;;;;33.03;21.42;;;;;;;;;;5120597;28;20023;-73
2023/04/09 02:07:33;;;;;;;32.00;20.98;;;;;;;;;;5133936;28;20447;-73
2023/04/09 02:10:19;;;;;;;31.63;20.67;;;;;;;;;;5119341;28;20435;-72
2023/04/09 02:13:06;;;;;;;33.47;20.95;;;;;;;;;;5134243;28;20023;-73
2023/04/09 02:15:53;;;;;;;34.58;20.95;;;;;;;;;;5135220;28;20027;-73
2023/04/09 02:18:38;;;;;;;35.65;22.17;;;;;;;;;;5134772;27;20019;-73
2023/04/09 02:21:25;;;;;;;33.78;21.25;;;;;;;;;;5138828;27;20035;-73
2023/04/09 02:24:11;;;;;;;32.60;21.02;;;;;;;;;;5139133;27;20062;-72
2023/04/09 02:26:57;;;;;;;37.22;23.50;;;;;;;;;;5138053;27;20029;-72
2023/04/09 02:29:42;;;;;;;32.05;20.85;;;;;;;;;;5138483;27;20026;-72
2023/04/09 02:32:28;;;;;;;35.63;21.80;;;;;;;;;;5138612;27;20019;-73
2023/04/09 02:35:14;;;;;;;36.20;23.10;;;;;;;;;;5138688;27;20114;-72
2023/04/09 02:38:00;;;;;;;40.95;24.60;;;;;;;;;;5139026;27;20027;-72
2023/04/09 02:40:45;;;;;;;39.72;25.23;;;;;;;;;;5138950;27;20030;-72
2023/04/09 02:43:31;;;;;;;40.42;24.90;;;;;;;;;;5138402;27;20084;-72
2023/04/09 02:46:16;;;;;;;38.25;23.73;;;;;;;;;;5143589;27;20023;-71
2023/04/09 02:49:02;;;;;;;39.42;23.73;;;;;;;;;;5143294;27;20125;-72
2023/04/09 02:51:48;;;;;;;38.13;24.23;;;;;;;;;;5138358;27;20142;-72
2023/04/09 02:54:33;;;;;;;39.05;23.98;;;;;;;;;;5138016;27;20031;-71
2023/04/09 02:57:19;;;;;;;38.20;24.90;;;;;;;;;;5138499;27;20135;-72
2023/04/09 03:00:07;;;;;;;41.45;25.30;;;;;;;;;;5137882;27;20098;-72
2023/04/09 03:02:53;;;;;;;38.10;23.67;;;;;;;;;;5138446;27;20103;-73
2023/04/09 03:05:38;;;;;;;40.00;24.70;;;;;;;;;;5137940;27;20019;-72
2023/04/09 03:08:24;;;;;;;39.15;24.20;;;;;;;;;;5142176;27;20061;-70
2023/04/09 03:11:10;;;;;;;42.33;25.08;;;;;;;;;;5150496;27;20024;-70
2023/04/09 03:13:55;;;;;;;37.67;23.90;;;;;;;;;;5138013;27;20019;-73
2023/04/09 03:16:41;;;;;;;41.00;24.70;;;;;;;;;;5137832;27;20152;-73
2023/04/09 03:19:26;;;;;;;39.13;24.88;;;;;;;;;;5122494;27;20091;-73
2023/04/09 03:22:12;;;;;;;40.70;25.42;;;;;;;;;;5137093;27;20023;-73
2023/04/09 03:24:57;;;;;;;40.70;25.13;;;;;;;;;;5138050;27;20089;-72
2023/04/09 03:27:43;;;;;;;44.50;26.70;;;;;;;;;;5123864;27;20023;-72
2023/04/09 03:30:29;;;;;;;39.33;24.42;;;;;;;;;;5136839;27;20019;-73
2023/04/09 03:33:14;;;;;;;41.25;24.65;;;;;;;;;;5121949;27;20377;-73
2023/04/09 03:36:00;;;;;;;36.63;23.52;;;;;;;;;;5136980;27;20499;-73
2023/04/09 03:38:45;;;;;;;35.72;23.35;;;;;;;;;;5137073;27;20019;-73
2023/04/09 03:41:31;;;;;;;37.08;22.30;;;;;;;;;;5136548;27;20058;-72
2023/04/09 03:44:16;;;;;;;39.88;22.15;;;;;;;;;;5138042;27;20023;-73
2023/04/09 03:47:02;;;;;;;37.22;21.85;;;;;;;;;;5136716;27;20392;-72
2023/04/09 03:49:48;;;;;;;34.70;21.98;;;;;;;;;;5136639;27;20031;-72
2023/04/09 03:52:33;;;;;;;38.60;22.80;;;;;;;;;;5136584;27;20106;-73
2023/04/09 03:55:19;;;;;;;36.80;21.35;;;;;;;;;;5137008;27;20015;-72
2023/04/09 03:58:05;;;;;;;33.13;20.23;;;;;;;;;;5123023;27;20019;-74
2023/04/09 04:00:50;;;;;;;34.55;19.92;;;;;;;;;;5137397;27;20015;-72
2023/04/09 04:03:36;;;;;;;32.45;20.92;;;;;;;;;;5137192;27;20019;-72
2023/04/09 04:06:21;;;;;;;32.05;19.73;;;;;;;;;;5136748;27;20103;-72
2023/04/09 04:09:07;;;;;;;32.95;20.30;;;;;;;;;;5136365;27;20138;-72
2023/04/09 04:11:54;;;;;;;36.85;19.65;;;;;;;;;;5121181;27;20038;-73
2023/04/09 04:14:39;;;;;;;27.55;17.52;;;;;;;;;;5138018;27;20046;-72
2023/04/09 04:17:25;;;;;;;27.63;17.05;;;;;;;;;;5137362;27;20050;-73
2023/04/09 04:20:11;;;;;;;29.80;17.48;;;;;;;;;;5136679;27;20042;-72
2023/04/09 04:22:56;;;;;;;29.50;17.00;;;;;;;;;;5136354;27;20023;-73
2023/04/09 04:25:42;;;;;;;26.13;16.67;;;;;;;;;;5122394;27;20034;-73
2023/04/09 04:28:27;;;;;;;27.48;15.20;;;;;;;;;;5138840;27;20040;-72
2023/04/09 04:31:13;;;;;;;23.05;14.07;;;;;;;;;;5136789;27;20061;-72
2023/04/09 04:33:59;;;;;;;21.98;13.02;;;;;;;;;;5136336;27;20015;-73
2023/04/09 04:36:44;;;;;;;28.05;14.65;;;;;;;;;;5137670;27;20083;-73
2023/04/09 04:39:30;;;;;;;25.58;13.75;;;;;;;;;;5136950;27;20034;-71
2023/04/09 04:42:16;;;;;;;27.63;13.93;;;;;;;;;;5119999;27;20054;-73
2023/04/09 04:45:04;;;;;;;23.67;13.88;;;;;;;;;;5121290;27;20023;-73
2023/04/09 04:47:49;;;;;;;21.55;14.38;;;;;;;;;;5136191;27;20504;-73
2023/04/09 04:50:35;;;;;;;26.55;15.68;;;;;;;;;;5137520;27;20023;-74
2023/04/09 04:53:23;;;;;;;26.80;17.00;;;;;;;;;;5136373;27;20038;-71
2023/04/09 04:56:13;;;;;;;30.40;18.73;;;;;;;;;;5140491;27;20027;-73
2023/04/09 04:58:59;;;;;;;36.80;20.25;;;;;;;;;;5135878;27;20023;-73
2023/04/09 05:01:47;;;;;;;30.88;20.40;;;;;;;;;;5135861;27;20022;-74
2023/04/09 05:04:33;;;;;;;29.73;19.95;;;;;;;;;;5124141;27;20082;-72
2023/04/09 05:07:19;;;;;;;29.92;19.20;;;;;;;;;;5120976;27;20403;-73
2023/04/09 05:10:05;;;;;;;38.40;19.50;;;;;;;;;;5135622;27;20032;-72
2023/04/09 05:12:50;;;;;;;29.23;18.00;;;;;;;;;;5134927;27;20033;-72
2023/04/09 05:15:37;;;;;;;26.95;16.33;;;;;;;;;;5135414;27;20447;-73
2023/04/09 05:18:23;;;;;;;26.65;16.23;;;;;;;;;;5135614;27;20100;-73
2023/04/09 05:21:09;;;;;;;26.25;14.68;;;;;;;;;;5135940;27;20416;-72
2023/04/09 05:23:54;;;;;;;21.63;13.05;;;;;;;;;;5135195;27;20045;-72
2023/04/09 05:26:40;;;;;;;16.58;11.43;;;;;;;;;;5135366;27;20034;-73
2023/04/09 05:29:29;;;;;;;20.55;11.90;;;;;;;;;;5135962;27;20069;-73
2023/04/09 05:32:17;;;;;;;17.20;10.77;;;;;;;;;;5135652;27;20054;-73
2023/04/09 05:35:03;;;;;;;15.88;10.30;;;;;;;;;;5134297;27;20092;-73
2023/04/09 05:37:49;;;;;;;16.25;10.85;;;;;;;;;;5135351;27;20350;-73
2023/04/09 05:40:34;;;;;;;17.65;10.93;;;;;;;;;;5134979;27;20026;-71
2023/04/09 05:43:20;;;;;;;15.43;9.98;;;;;;;;;;5135091;27;20023;-72
2023/04/09 05:46:06;;;;;;;15.15;9.75;;;;;;;;;;5135906;27;20091;-72
2023/04/09 05:48:52;;;;;;;15.70;9.80;;;;;;;;;;5135705;27;20015;-73
2023/04/09 05:51:37;;;;;;;18.23;10.68;;;;;;;;;;5134766;27;20027;-72
2023/04/09 05:54:24;;;;;;;17.55;11.10;;;;;;;;;;5134182;27;20055;-73
2023/04/09 05:57:10;;;;;;;15.90;10.70;;;;;;;;;;5135126;27;20020;-73
2023/04/09 05:59:56;;;;;;;16.88;11.20;;;;;;;;;;5135257;27;20019;-72
2023/04/09 06:02:41;;;;;;;17.15;10.57;;;;;;;;;;5134303;27;20035;-73
2023/04/09 06:05:27;;;;;;;15.40;10.60;;;;;;;;;;5134507;27;20026;-73
2023/04/09 06:08:13;;;;;;;16.23;10.48;;;;;;;;;;5134711;28;20062;-76
2023/04/09 06:10:58;;;;;;;12.38;8.82;;;;;;;;;;5134609;28;20027;-73
2023/04/09 06:13:44;;;;;;;14.93;8.32;;;;;;;;;;5135385;28;20106;-73
2023/04/09 06:16:29;;;;;;;15.55;9.10;;;;;;;;;;5135400;28;20358;-73
2023/04/09 06:19:15;;;;;;;11.30;8.57;;;;;;;;;;5121541;28;20027;-73
2023/04/09 06:22:01;;;;;;;13.20;8.77;;;;;;;;;;5134660;28;20069;-72
2023/04/09 06:24:46;;;;;;;15.32;8.75;;;;;;;;;;5134222;28;20456;-72
2023/04/09 06:27:32;;;;;;;14.82;8.68;;;;;;;;;;5121282;28;20453;-74
2023/04/09 06:30:18;;;;;;;15.02;8.38;;;;;;;;;;5120238;28;20066;-73
2023/04/09 06:33:03;;;;;;;18.90;10.05;;;;;;;;;;5120622;28;20070;-73
2023/04/09 06:35:49;;;;;;;17.50;9.88;;;;;;;;;;5134349;28;20016;-72
2023/04/09 06:38:35;;;;;;;17.95;9.80;;;;;;;;;;5120862;28;20034;-73
2023/04/09 06:41:21;;;;;;;19.45;8.75;;;;;;;;;;5121599;28;20019;-72
2023/04/09 06:44:06;;;;;;;24.27;10.43;;;;;;;;;;5134318;28;20079;-73
2023/04/09 06:46:52;;;;;;;23.27;12.02;;;;;;;;;;5136596;28;20015;-75
2023/04/09 06:49:37;;;;;;;16.15;9.45;;;;;;;;;;5139855;28;20503;-72
2023/04/09 06:52:23;;;;;;;15.65;9.38;;;;;;;;;;5152395;28;20024;-73
2023/04/09 06:55:09;;;;;;;27.27;14.00;;;;;;;;;;5140202;28;20062;-72
2023/04/09 06:57:55;;;;;;;22.80;9.02;;;;;;;;;;5120532;28;20111;-73
2023/04/09 07:00:40;;;;;;;15.95;8.38;;;;;;;;;;5134209;28;20367;-74
2023/04/09 07:03:26;;;;;;;13.98;7.63;;;;;;;;;;5120479;28;20026;-73
2023/04/09 07:06:12;;;;;;;15.38;7.30;;;;;;;;;;5136281;27;20105;-73
2023/04/09 07:08:57;;;;;;;12.82;7.75;;;;;;;;;;5137364;27;20052;-73
2023/04/09 07:11:43;;;;;;;13.95;7.78;;;;;;;;;;5137896;27;20185;-70
2023/04/09 07:14:28;;;;;;;16.60;8.88;;;;;;;;;;5138230;27;20031;-73
2023/04/09 07:17:14;;;;;;;13.75;7.53;;;;;;;;;;5147100;27;20004;-73
2023/04/09 07:20:00;;;;;;;12.00;7.93;;;;;;;;;;5137805;27;20015;-74
2023/04/09 07:22:45;;;;;;;12.38;8.55;;;;;;;;;;5137776;27;20017;-74
2023/04/09 07:25:31;;;;;;;13.38;8.02;;;;;;;;;;5143088;27;20072;-73
2023/04/09 07:28:17;;;;;;;12.40;7.07;;;;;;;;;;5137390;27;20027;-72
2023/04/09 07:31:02;;;;;;;11.65;6.18;;;;;;;;;;5137361;27;20498;-72
2023/04/09 07:33:48;;;;;;;21.67;7.50;;;;;;;;;;5138228;27;20019;-74
2023/04/09 07:36:34;;;;;;;11.90;6.50;;;;;;;;;;5123692;27;20047;-74
2023/04/09 07:39:19;;;;;;;16.70;6.28;;;;;;;;;;5137210;27;20030;-73
2023/04/09 07:42:05;;;;;;;12.13;5.75;;;;;;;;;;5123522;27;20042;-74
2023/04/09 07:44:51;;;;;;;15.75;6.63;;;;;;;;;;5124170;27;20435;-73
2023/04/09 07:47:37;;;;;;;7.85;5.40;;;;;;;;;;5123232;27;20427;-74
2023/04/09 07:50:23;;;;;;;13.85;7.18;;;;;;;;;;5137575;27;20027;-72
2023/04/09 07:53:09;;;;;;;18.23;7.38;;;;;;;;;;5123813;27;20087;-73
2023/04/09 07:55:55;;;;;;;11.45;7.22;;;;;;;;;;5124048;27;20054;-74
2023/04/09 07:58:40;;;;;;;12.35;7.00;;;;;;;;;;5136658;27;20023;-74
2023/04/09 08:01:26;;;;;;;16.27;6.70;;;;;;;;;;5136667;27;20015;-73
2023/04/09 08:04:12;;;;;;;11.93;6.43;;;;;;;;;;5136797;27;20015;-73
2023/04/09 08:06:58;;;;;;;9.48;6.50;;;;;;;;;;5136906;27;20031;-73
2023/04/09 08:09:43;;;;;;;15.90;6.63;;;;;;;;;;5137359;27;20031;-74
2023/04/09 08:12:29;;;;;;;15.05;6.75;;;;;;;;;;5136159;27;20023;-73
2023/04/09 08:15:15;;;;;;;9.52;5.35;;;;;;;;;;5136004;27;20038;-74
2023/04/09 08:18:02;;;;;;;9.07;5.60;;;;;;;;;;5136881;27;20023;-73
2023/04/09 08:20:47;;;;;;;9.05;5.38;;;;;;;;;;5123428;27;20102;-73
2023/04/09 08:23:33;;;;;;;7.45;5.60;;;;;;;;;;5136263;27;20032;-74
2023/04/09 08:26:18;;;;;;;12.05;5.68;;;;;;;;;;5135865;27;20020;-74
2023/04/09 08:29:04;;;;;;;6.82;5.20;;;;;;;;;;5136537;27;20038;-73
2023/04/09 08:31:50;;;;;;;7.50;5.20;;;;;;;;;;5122974;27;20023;-75
2023/04/09 08:34:36;;;;;;;8.65;5.28;;;;;;;;;;5122254;27;20361;-74
2023/04/09 08:37:21;;;;;;;7.88;5.25;;;;;;;;;;5137336;27;20047;-74
2023/04/09 08:40:07;;;;;;;9.10;5.55;;;;;;;;;;5136356;27;20015;-73
2023/04/09 08:42:57;;;;;;;8.30;5.40;;;;;;;;;;5122290;27;20054;-74
2023/04/09 08:45:43;;;;;;;9.70;5.38;;;;;;;;;;5136111;27;20065;-75
2023/04/09 08:48:28;;;;;;;8.77;5.50;;;;;;;;;;5135676;27;20050;-73
2023/04/09 08:51:15;;;;;;;7.32;5.00;;;;;;;;;;5136907;27;20031;-73
2023/04/09 08:54:01;;;;;;;62.50;45.47;;;;;;;;;;5137155;27;20409;-73
2023/04/09 08:56:47;;;;;;;9.52;5.30;;;;;;;;;;5135786;27;20073;-73
2023/04/09 08:59:36;;;;;;;7.30;5.20;;;;;;;;;;5135731;27;20019;-72
2023/04/09 09:02:23;;;;;;;7.38;5.13;;;;;;;;;;5136372;27;20325;-75
2023/04/09 09:05:08;;;;;;;7.57;5.40;;;;;;;;;;5135917;27;20102;-74
2023/04/09 09:07:54;;;;;;;7.45;5.00;;;;;;;;;;5135657;27;20043;-74
2023/04/09 09:10:40;;;;;;;6.05;4.90;;;;;;;;;;5135296;27;20027;-73
2023/04/09 09:13:26;;;;;;;10.73;5.60;;;;;;;;;;5121114;27;20037;-73
2023/04/09 09:16:14;;;;;;;10.35;5.63;;;;;;;;;;5135393;27;20058;-73
2023/04/09 09:19:01;;;;;;;10.27;6.20;;;;;;;;;;5137156;27;20015;-74
2023/04/09 09:21:54;;;;;;;7.88;6.10;;;;;;;;;;5135802;27;20439;-73
2023/04/09 09:24:50;;;;;;;9.10;5.30;;;;;;;;;;5135945;27;20034;-75
2023/04/09 09:27:38;;;;;;;8.90;6.05;;;;;;;;;;5135495;27;20034;-74
2023/04/09 09:30:24;;;;;;;8.82;5.55;;;;;;;;;;5135233;27;20026;-74
2023/04/09 09:33:11;;;;;;;7.75;5.65;;;;;;;;;;5135839;27;20114;-73
2023/04/09 09:35:56;;;;;;;7.38;5.57;;;;;;;;;;5135837;27;20122;-71
2023/04/09 09:38:53;;;;;;;10.75;6.07;;;;;;;;;;5135138;27;20038;-74
2023/04/09 09:41:41;;;;;;;6.93;6.13;;;;;;;;;;5135214;27;20044;-73
2023/04/09 09:44:31;;;;;;;8.95;5.88;;;;;;;;;;5135480;27;20454;-73
2023/04/09 09:47:18;;;;;;;7.78;5.70;;;;;;;;;;5135659;27;20031;-73
2023/04/09 09:50:04;;;;;;;9.43;6.25;;;;;;;;;;5139037;27;20077;-73
2023/04/09 09:52:53;;;;;;;8.40;5.78;;;;;;;;;;5148265;27;20035;-74
2023/04/09 09:55:39;;;;;;;9.35;6.35;;;;;;;;;;5124939;27;20019;-73
2023/04/09 09:58:34;;;;;;;11.95;6.00;;;;;;;;;;5122094;27;20023;-72
2023/04/09 10:01:20;;;;;;;6.80;5.90;;;;;;;;;;5135515;27;20007;-74
2023/04/09 10:04:12;;;;;;;9.77;6.40;;;;;;;;;;5135008;27;20343;-73
2023/04/09 10:07:02;;;;;;;12.63;6.45;;;;;;;;;;5134457;27;20443;-74
2023/04/09 10:09:50;;;;;;;8.80;5.72;;;;;;;;;;5135162;28;20118;-73
2023/04/09 10:12:36;;;;;;;9.38;6.47;;;;;;;;;;5135051;28;20420;-74
2023/04/09 10:15:22;;;;;;;10.02;6.13;;;;;;;;;;5119998;28;20034;-75
2023/04/09 10:18:07;;;;;;;12.43;6.40;;;;;;;;;;5139954;28;20027;-72
2023/04/09 10:20:54;;;;;;;9.95;6.65;;;;;;;;;;5139716;28;20048;-74
2023/04/09 10:23:44;;;;;;;7.57;6.00;;;;;;;;;;5136009;28;20367;-73
2023/04/09 10:26:31;;;;;;;12.02;6.50;;;;;;;;;;5135048;28;20019;-73
2023/04/09 10:29:25;;;;;;;10.23;6.18;;;;;;;;;;5121024;28;20118;-73
2023/04/09 10:32:11;;;;;;;11.68;6.28;;;;;;;;;;5134081;28;20502;-72
2023/04/09 10:34:58;;;;;;;8.32;6.47;;;;;;;;;;5134817;28;20340;-73
2023/04/09 10:37:48;;;;;;;9.70;6.25;;;;;;;;;;5121472;28;20019;-72
2023/04/09 10:40:34;;;;;;;8.35;6.20;;;;;;;;;;5121913;27;20047;-73
2023/04/09 10:43:21;;;;;;;6.85;5.75;;;;;;;;;;5138673;27;20025;-72
2023/04/09 10:46:17;;;;;;;14.88;6.88;;;;;;;;;;5138263;27;20363;-73
2023/04/09 10:49:10;;;;;;;13.45;6.38;;;;;;;;;;5139737;27;20027;-74
2023/04/09 10:52:05;;;;;;;7.13;6.05;;;;;;;;;;5138355;27;20030;-73
2023/04/09 10:54:51;;;;;;;7.78;5.38;;;;;;;;;;5125666;27;20031;-73
2023/04/09 10:57:36;;;;;;;10.65;6.00;;;;;;;;;;5137881;27;20015;-73
2023/04/09 11:00:22;;;;;;;8.43;6.00;;;;;;;;;;5124808;27;20019;-74
2023/04/09 11:03:07;;;;;;;8.20;5.90;;;;;;;;;;5138477;27;20114;-73
2023/04/09 11:06:08;;;;;;;7.18;5.82;;;;;;;;;;5138991;27;20452;-73
2023/04/09 11:08:55;;;;;;;11.00;6.18;;;;;;;;;;5137829;27;20438;-74
2023/04/09 11:11:40;;;;;;;10.35;5.88;;;;;;;;;;5138702;27;20023;-73
2023/04/09 11:14:26;;;;;;;7.40;6.28;;;;;;;;;;5136844;27;20019;-73
2023/04/09 11:17:12;;;;;;;7.38;6.00;;;;;;;;;;5137599;27;20023;-73
2023/04/09 11:19:58;;;;;;;8.25;5.57;;;;;;;;;;5137891;27;20034;-71
2023/04/09 11:22:44;;;;;;;8.75;5.95;;;;;;;;;;5138157;27;20069;-72
2023/04/09 11:25:30;;;;;;;14.55;6.40;;;;;;;;;;5138226;27;20137;-73
2023/04/09 11:28:16;;;;;;;6.78;5.70;;;;;;;;;;5139266;27;20033;-73
2023/04/09 11:31:03;;;;;;;6.35;5.65;;;;;;;;;;5123966;27;20031;-73
2023/04/09 11:33:50;;;;;;;7.70;5.60;;;;;;;;;;5123880;27;20460;-72
2023/04/09 11:36:38;;;;;;;7.90;5.57;;;;;;;;;;5138489;27;20081;-74
2023/04/09 11:39:24;;;;;;;9.20;5.68;;;;;;;;;;5121694;27;20066;-74
2023/04/09 11:42:13;;;;;;;8.43;5.88;;;;;;;;;;5123670;27;20019;-73
2023/04/09 11:45:00;;;;;;;7.20;5.55;;;;;;;;;;5138303;27;20031;-74
2023/04/09 11:47:46;;;;;;;6.82;5.28;;;;;;;;;;5136848;27;20019;-73
2023/04/09 11:50:31;;;;;;;7.30;4.85;;;;;;;;;;5137127;27;20019;-72
2023/04/09 11:53:17;;;;;;;7.43;5.97;;;;;;;;;;5136283;27;20019;-73
2023/04/09 11:56:03;;;;;;;8.20;6.05;;;;;;;;;;5137825;27;20041;-73
2023/04/09 11:58:48;;;;;;;8.32;5.93;;;;;;;;;;5137598;27;20134;-73
2023/04/09 12:01:34;;;;;;;11.27;5.63;;;;;;;;;;5123991;27;20023;-73
2023/04/09 12:04:20;;;;;;;9.32;5.85;;;;;;;;;;5137362;27;20015;-72
2023/04/09 12:07:07;;;;;;;7.90;5.55;;;;;;;;;;5136729;27;20047;-74
2023/04/09 12:09:53;;;;;;;14.48;5.88;;;;;;;;;;5137706;27;20466;-74
2023/04/09 12:12:40;;;;;;;7.50;5.35;;;;;;;;;;5136170;27;20095;-74
2023/04/09 12:15:29;;;;;;;7.80;5.97;;;;;;;;;;5123706;27;20019;-72
2023/04/09 12:18:15;;;;;;;8.35;5.97;;;;;;;;;;5137001;27;20359;-72
2023/04/09 12:21:01;;;;;;;13.15;6.18;;;;;;;;;;5137052;27;20458;-72
2023/04/09 12:23:47;;;;;;;9.48;5.57;;;;;;;;;;5136039;27;20098;-74
2023/04/09 12:26:32;;;;;;;7.78;6.25;;;;;;;;;;5136999;27;20083;-72
2023/04/09 12:29:19;;;;;;;13.40;5.82;;;;;;;;;;5135906;27;20351;-72
2023/04/09 12:32:05;;;;;;;8.23;5.47;;;;;;;;;;5137083;27;20023;-73
2023/04/09 12:34:50;;;;;;;6.88;5.82;;;;;;;;;;5123210;27;20031;-73
2023/04/09 12:37:36;;;;;;;14.32;6.93;;;;;;;;;;5135801;27;20015;-74
2023/04/09 12:40:22;;;;;;;8.90;5.80;;;;;;;;;;5135933;27;20019;-74
2023/04/09 12:43:07;;;;;;;7.68;5.95;;;;;;;;;;5136749;27;20455;-73
2023/04/09 12:45:53;;;;;;;13.43;6.70;;;;;;;;;;5135925;27;20473;-73
2023/04/09 12:48:38;;;;;;;10.35;6.38;;;;;;;;;;5135929;27;20027;-73
2023/04/09 12:51:24;;;;;;;7.50;5.90;;;;;;;;;;5135852;27;20050;-73
2023/04/09 12:54:10;;;;;;;9.38;5.78;;;;;;;;;;5122583;27;20047;-74
2023/04/09 12:56:55;;;;;;;13.45;5.80;;;;;;;;;;5135586;27;20034;-73
2023/04/09 12:59:41;;;;;;;8.55;5.70;;;;;;;;;;5135443;27;20022;-72
2023/04/09 13:02:27;;;;;;;21.67;6.80;;;;;;;;;;5135042;27;20384;-73
2023/04/09 13:05:12;;;;;;;9.68;6.00;;;;;;;;;;5122316;27;20019;-74
2023/04/09 13:07:58;;;;;;;11.77;6.20;;;;;;;;;;5121928;27;20054;-72
2023/04/09 13:10:44;;;;;;;6.47;5.65;;;;;;;;;;5122171;27;20030;-73
2023/04/09 13:13:30;;;;;;;10.93;6.32;;;;;;;;;;5117926;27;20023;-72
2023/04/09 13:16:16;;;;;;;12.05;5.85;;;;;;;;;;5116260;27;20041;-72
2023/04/09 13:19:02;;;;;;;8.32;6.25;;;;;;;;;;5136332;27;20023;-74
2023/04/09 13:21:47;;;;;;;9.85;5.53;;;;;;;;;;5121559;27;20027;-72
2023/04/09 13:24:36;;;;;;;10.77;6.28;;;;;;;;;;5135039;27;20026;-72
2023/04/09 13:27:21;;;;;;;8.13;5.97;;;;;;;;;;5134876;27;20355;-73
2023/04/09 13:30:07;;;;;;;10.63;6.28;;;;;;;;;;5135597;27;20431;-72
2023/04/09 13:32:53;;;;;;;15.40;6.60;;;;;;;;;;5135158;27;20027;-72
2023/04/09 13:35:38;;;;;;;9.52;6.35;;;;;;;;;;5120146;27;20020;-73
2023/04/09 13:38:24;;;;;;;8.38;6.07;;;;;;;;;;5134411;27;20029;-72
2023/04/09 13:41:09;;;;;;;7.22;5.55;;;;;;;;;;5136030;27;20051;-73
2023/04/09 13:43:55;;;;;;;9.23;6.07;;;;;;;;;;5121175;27;20019;-72
2023/04/09 13:46:41;;;;;;;7.50;5.85;;;;;;;;;;5134575;27;20415;-73
2023/04/09 13:49:26;;;;;;;11.57;5.90;;;;;;;;;;5122182;27;20031;-73
2023/04/09 13:52:12;;;;;;;10.20;5.88;;;;;;;;;;5137943;27;20027;-73
2023/04/09 13:54:57;;;;;;;8.27;6.03;;;;;;;;;;5151026;27;20049;-72
2023/04/09 13:57:43;;;;;;;7.63;5.80;;;;;;;;;;5135412;27;20012;-73
2023/04/09 14:00:29;;;;;;;8.98;5.80;;;;;;;;;;5139736;27;20015;-73
2023/04/09 14:03:15;;;;;;;7.50;5.95;;;;;;;;;;5141748;27;20076;-74
2023/04/09 14:06:01;;;;;;;8.35;6.10;;;;;;;;;;5149341;27;20019;-72
2023/04/09 14:08:50;;;;;;;13.43;6.45;;;;;;;;;;5142927;27;20387;-74
2023/04/09 14:11:35;;;;;;;11.13;6.20;;;;;;;;;;5138279;28;20052;-74
2023/04/09 14:14:21;;;;;;;13.90;6.60;;;;;;;;;;5144343;27;20016;-72
2023/04/09 14:17:07;;;;;;;8.13;5.60;;;;;;;;;;5136951;27;20011;-73
2023/04/09 14:19:52;;;;;;;8.70;6.07;;;;;;;;;;5132756;27;20019;-72
2023/04/09 14:22:38;;;;;;;9.48;6.18;;;;;;;;;;5143114;27;20354;-72
2023/04/09 14:25:23;;;;;;;9.43;5.90;;;;;;;;;;5141254;27;20022;-72
2023/04/09 14:28:09;;;;;;;8.80;5.95;;;;;;;;;;5141984;27;20026;-73
2023/04/09 14:30:55;;;;;;;11.75;6.80;;;;;;;;;;5140866;27;20030;-73
2023/04/09 14:33:40;;;;;;;10.02;6.28;;;;;;;;;;5141625;27;20054;-73
2023/04/09 14:36:26;;;;;;;9.88;6.35;;;;;;;;;;5129639;27;20027;-73
2023/04/09 14:39:12;;;;;;;9.20;6.13;;;;;;;;;;5142175;27;20027;-73
2023/04/09 14:41:57;;;;;;;11.18;6.75;;;;;;;;;;5142172;27;20419;-73
2023/04/09 14:44:43;;;;;;;9.68;6.20;;;;;;;;;;5142084;27;20445;-73
2023/04/09 14:47:29;;;;;;;6.45;5.75;;;;;;;;;;5128115;27;20037;-73
2023/04/09 14:50:14;;;;;;;11.75;6.88;;;;;;;;;;5127574;27;20087;-74
2023/04/09 14:53:00;;;;;;;12.00;6.90;;;;;;;;;;5141050;27;20087;-73
2023/04/09 14:55:46;;;;;;;12.57;6.93;;;;;;;;;;5140537;27;20363;-73
2023/04/09 14:58:31;;;;;;;9.15;6.25;;;;;;;;;;5140229;27;20015;-73
2023/04/09 15:01:17;;;;;;;6.78;5.80;;;;;;;;;;5127648;27;20034;-72
2023/04/09 15:04:02;;;;;;;7.13;6.15;;;;;;;;;;5126588;27;20099;-73
2023/04/09 15:06:48;;;;;;;10.77;6.38;;;;;;;;;;5135114;27;20007;-73
2023/04/09 15:09:34;;;;;;;10.80;6.15;;;;;;;;;;5148058;27;20054;-72
2023/04/09 15:12:19;;;;;;;8.68;6.90;;;;;;;;;;5143227;27;20023;-74
2023/04/09 15:15:06;;;;;;;8.93;6.22;;;;;;;;;;5140616;27;20443;-73
2023/04/09 15:17:51;;;;;;;9.77;6.93;;;;;;;;;;5141071;27;20023;-73
2023/04/09 15:20:37;;;;;;;11.07;6.88;;;;;;;;;;5141149;27;20046;-73
2023/04/09 15:23:23;;;;;;;10.00;7.47;;;;;;;;;;5127451;27;20057;-73
2023/04/09 15:26:09;;;;;;;12.90;7.97;;;;;;;;;;5138618;27;20038;-73
2023/04/09 15:29:00;;;;;;;7.35;6.47;;;;;;;;;;5124822;27;20020;-72
2023/04/09 15:31:45;;;;;;;10.43;7.25;;;;;;;;;;5138075;27;20019;-74
2023/04/09 15:34:31;;;;;;;12.25;7.60;;;;;;;;;;5124088;27;20370;-73
2023/04/09 15:37:16;;;;;;;13.13;7.40;;;;;;;;;;5124355;27;20371;-74
2023/04/09 15:40:30;;;;;;;14.07;7.68;;;;;;;;;;5137677;27;20027;-74
2023/04/09 15:46:54;;;;;;;15.60;7.43;;;;;;;;;;5055807;28;20138;-77
2023/04/09 15:53:14;;;;;;;;;;;;;;;;;;;;;
2023/04/09 15:59:44;;;;;;;;;;;;;;;;;;;;;
2023/04/09 16:02:29;;;;;;;14.35;8.32;;;;;;;;;;5097206;28;20024;-74
2023/04/09 16:05:16;;;;;;;12.18;7.72;;;;;;;;;;5094070;28;20016;-76
2023/04/09 16:08:01;;;;;;;10.02;7.25;;;;;;;;;;5081131;28;20063;-73
2023/04/09 16:10:47;;;;;;;15.63;8.38;;;;;;;;;;5094904;28;20145;-74
2023/04/09 16:13:33;;;;;;;19.00;8.05;;;;;;;;;;5093278;27;20049;-73
2023/04/09 16:16:19;;;;;;;11.32;7.85;;;;;;;;;;5137089;27;20427;-74
2023/04/09 16:19:05;;;;;;;11.57;8.23;;;;;;;;;;5137241;27;20054;-72
2023/04/09 16:21:51;;;;;;;15.43;10.40;;;;;;;;;;5122664;27;20521;-73
2023/04/09 16:24:36;;;;;;;22.25;16.00;;;;;;;;;;5120984;27;20439;-73
2023/04/09 16:27:22;;;;;;;11.48;8.55;;;;;;;;;;5135794;27;20038;-74
2023/04/09 16:30:08;;;;;;;11.48;8.52;;;;;;;;;;5135982;27;20109;-72
2023/04/09 16:32:53;;;;;;;14.93;9.30;;;;;;;;;;5136515;27;20095;-73
2023/04/09 16:35:39;;;;;;;16.33;9.60;;;;;;;;;;5135886;27;20439;-73